sensor_id;sensor_type;location;lat;lon;timestamp;temperature;humidity
26707;DHT22;14319;49.422;10.934;2023-06-04T00:01:02;14.20;48.30
26707;DHT22;14319;49.422;10.934;2023-06-04T00:03:03;14.20;49.40
26707;DHT22;14319;49.422;10.934;2023-06-04T00:05:04;14.10;49.50
26707;DHT22;14319;49.422;10.934;2023-06-04T00:07:05;14.30;49.30
26707;DHT22;14319;49.422;10.934;2023-06-04T00:09:06;14.30;48.70
26707;DHT22;14319;49.422;10.934;2023-06-04T00:11:06;14.50;48.90
26707;DHT22;14319;49.422;10.934;2023-06-04T00:13:07;14.60;48.30
26707;DHT22;14319;49.422;10.934;2023-06-04T00:15:08;14.50;48.00
26707;DHT22;14319;49.422;10.934;2023-06-04T00:17:09;14.50;48.80
26707;DHT22;14319;49.422;10.934;2023-06-04T00:19:10;14.60;48.90
26707;DHT22;14319;49.422;10.934;2023-06-04T00:21:11;14.60;48.70
26707;DHT22;14319;49.422;10.934;2023-06-04T00:23:14;14.60;48.40
26707;DHT22;14319;49.422;10.934;2023-06-04T00:25:15;14.60;49.00
26707;DHT22;14319;49.422;10.934;2023-06-04T00:27:16;14.50;49.00
26707;DHT22;14319;49.422;10.934;2023-06-04T00:29:17;14.50;48.50
26707;DHT22;14319;49.422;10.934;2023-06-04T00:31:17;14.50;49.70
26707;DHT22;14319;49.422;10.934;2023-06-04T00:33:18;14.50;49.10
26707;DHT22;14319;49.422;10.934;2023-06-04T00:35:19;14.50;48.30
26707;DHT22;14319;49.422;10.934;2023-06-04T00:37:22;14.40;48.60
26707;DHT22;14319;49.422;10.934;2023-06-04T00:39:23;14.40;48.30
26707;DHT22;14319;49.422;10.934;2023-06-04T00:41:26;14.50;48.70
26707;DHT22;14319;49.422;10.934;2023-06-04T00:43:27;14.50;48.10
26707;DHT22;14319;49.422;10.934;2023-06-04T00:45:28;14.30;47.80
26707;DHT22;14319;49.422;10.934;2023-06-04T00:47:32;14.10;46.40
26707;DHT22;14319;49.422;10.934;2023-06-04T00:49:32;14.20;47.30
26707;DHT22;14319;49.422;10.934;2023-06-04T00:51:33;14.20;47.10
26707;DHT22;14319;49.422;10.934;2023-06-04T00:53:34;14.20;46.50
26707;DHT22;14319;49.422;10.934;2023-06-04T00:55:34;14.10;47.40
26707;DHT22;14319;49.422;10.934;2023-06-04T00:57:35;14.00;46.90
26707;DHT22;14319;49.422;10.934;2023-06-04T00:59:38;13.90;48.20
26707;DHT22;14319;49.422;10.934;2023-06-04T01:04:00;13.90;48.80
26707;DHT22;14319;49.422;10.934;2023-06-04T01:06:13;13.90;48.60
26707;DHT22;14319;49.422;10.934;2023-06-04T01:08:23;13.90;48.20
26707;DHT22;14319;49.422;10.934;2023-06-04T01:10:24;13.90;48.30
26707;DHT22;14319;49.422;10.934;2023-06-04T01:12:24;13.90;48.20
26707;DHT22;14319;49.422;10.934;2023-06-04T01:14:25;13.90;47.80
26707;DHT22;14319;49.422;10.934;2023-06-04T01:16:29;13.90;47.90
26707;DHT22;14319;49.422;10.934;2023-06-04T01:18:31;14.00;47.70
26707;DHT22;14319;49.422;10.934;2023-06-04T01:20:43;13.90;48.90
26707;DHT22;14319;49.422;10.934;2023-06-04T01:25:01;13.70;49.20
26707;DHT22;14319;49.422;10.934;2023-06-04T01:27:04;13.80;49.60
26707;DHT22;14319;49.422;10.934;2023-06-04T01:29:06;13.90;48.40
26707;DHT22;14319;49.422;10.934;2023-06-04T01:31:08;13.90;49.00
26707;DHT22;14319;49.422;10.934;2023-06-04T01:33:10;13.70;47.80
26707;DHT22;14319;49.422;10.934;2023-06-04T01:35:12;13.60;48.90
26707;DHT22;14319;49.422;10.934;2023-06-04T01:37:12;13.60;49.90
26707;DHT22;14319;49.422;10.934;2023-06-04T01:39:13;13.50;49.90
26707;DHT22;14319;49.422;10.934;2023-06-04T01:41:14;13.70;50.10
26707;DHT22;14319;49.422;10.934;2023-06-04T01:43:15;13.70;50.40
26707;DHT22;14319;49.422;10.934;2023-06-04T01:45:16;13.80;49.80
26707;DHT22;14319;49.422;10.934;2023-06-04T01:47:16;13.80;49.90
26707;DHT22;14319;49.422;10.934;2023-06-04T01:49:17;13.40;49.30
26707;DHT22;14319;49.422;10.934;2023-06-04T01:51:18;13.40;50.00
26707;DHT22;14319;49.422;10.934;2023-06-04T01:53:18;13.60;49.40
26707;DHT22;14319;49.422;10.934;2023-06-04T01:55:19;13.40;49.30
26707;DHT22;14319;49.422;10.934;2023-06-04T01:57:21;13.40;49.80
26707;DHT22;14319;49.422;10.934;2023-06-04T01:59:21;13.40;48.60
26707;DHT22;14319;49.422;10.934;2023-06-04T02:01:22;13.50;49.00
26707;DHT22;14319;49.422;10.934;2023-06-04T02:03:23;13.50;49.00
26707;DHT22;14319;49.422;10.934;2023-06-04T02:05:23;13.40;48.80
26707;DHT22;14319;49.422;10.934;2023-06-04T02:07:24;13.30;49.60
26707;DHT22;14319;49.422;10.934;2023-06-04T02:09:26;13.40;49.50
26707;DHT22;14319;49.422;10.934;2023-06-04T02:11:26;13.40;49.30
26707;DHT22;14319;49.422;10.934;2023-06-04T02:13:27;13.30;49.10
26707;DHT22;14319;49.422;10.934;2023-06-04T02:15:29;13.20;48.90
26707;DHT22;14319;49.422;10.934;2023-06-04T02:17:29;13.20;49.10
26707;DHT22;14319;49.422;10.934;2023-06-04T02:19:32;13.10;49.50
26707;DHT22;14319;49.422;10.934;2023-06-04T02:21:34;13.30;49.20
26707;DHT22;14319;49.422;10.934;2023-06-04T02:23:35;13.40;49.60
26707;DHT22;14319;49.422;10.934;2023-06-04T02:25:36;13.30;48.70
26707;DHT22;14319;49.422;10.934;2023-06-04T02:27:37;13.30;49.50
26707;DHT22;14319;49.422;10.934;2023-06-04T02:29:38;13.40;49.20
26707;DHT22;14319;49.422;10.934;2023-06-04T02:31:39;13.40;49.00
26707;DHT22;14319;49.422;10.934;2023-06-04T02:33:40;13.40;48.30
26707;DHT22;14319;49.422;10.934;2023-06-04T02:35:41;13.30;49.00
26707;DHT22;14319;49.422;10.934;2023-06-04T02:37:41;13.20;49.90
26707;DHT22;14319;49.422;10.934;2023-06-04T02:39:42;13.30;49.90
26707;DHT22;14319;49.422;10.934;2023-06-04T02:41:43;13.30;50.30
26707;DHT22;14319;49.422;10.934;2023-06-04T02:43:44;13.30;49.90
26707;DHT22;14319;49.422;10.934;2023-06-04T02:45:45;13.00;49.50
26707;DHT22;14319;49.422;10.934;2023-06-04T02:47:45;12.90;50.30
26707;DHT22;14319;49.422;10.934;2023-06-04T02:49:46;12.80;50.60
26707;DHT22;14319;49.422;10.934;2023-06-04T02:51:47;12.80;51.30
26707;DHT22;14319;49.422;10.934;2023-06-04T02:53:47;12.80;51.60
26707;DHT22;14319;49.422;10.934;2023-06-04T02:55:48;12.70;50.70
26707;DHT22;14319;49.422;10.934;2023-06-04T02:57:50;12.60;50.40
26707;DHT22;14319;49.422;10.934;2023-06-04T02:59:52;12.70;51.70
26707;DHT22;14319;49.422;10.934;2023-06-04T03:01:53;12.70;51.30
26707;DHT22;14319;49.422;10.934;2023-06-04T03:03:55;12.80;51.60
26707;DHT22;14319;49.422;10.934;2023-06-04T03:05:55;12.50;51.50
26707;DHT22;14319;49.422;10.934;2023-06-04T03:07:56;12.60;52.30
26707;DHT22;14319;49.422;10.934;2023-06-04T03:09:57;12.60;52.20
26707;DHT22;14319;49.422;10.934;2023-06-04T03:12:01;12.40;52.60
26707;DHT22;14319;49.422;10.934;2023-06-04T03:14:02;12.30;53.40
26707;DHT22;14319;49.422;10.934;2023-06-04T03:16:03;12.30;54.00
26707;DHT22;14319;49.422;10.934;2023-06-04T03:18:12;12.40;53.80
26707;DHT22;14319;49.422;10.934;2023-06-04T03:20:13;12.50;52.90
26707;DHT22;14319;49.422;10.934;2023-06-04T03:22:14;12.40;53.20
26707;DHT22;14319;49.422;10.934;2023-06-04T03:24:15;12.40;53.40
26707;DHT22;14319;49.422;10.934;2023-06-04T03:26:16;12.40;53.70
26707;DHT22;14319;49.422;10.934;2023-06-04T03:28:16;12.30;54.00
26707;DHT22;14319;49.422;10.934;2023-06-04T03:30:19;12.40;54.00
26707;DHT22;14319;49.422;10.934;2023-06-04T03:32:29;12.30;54.80
26707;DHT22;14319;49.422;10.934;2023-06-04T03:34:30;12.20;55.00
26707;DHT22;14319;49.422;10.934;2023-06-04T03:36:34;12.30;55.30
26707;DHT22;14319;49.422;10.934;2023-06-04T03:38:38;12.20;55.60
26707;DHT22;14319;49.422;10.934;2023-06-04T03:40:42;12.30;55.50
26707;DHT22;14319;49.422;10.934;2023-06-04T03:42:43;12.10;55.40
26707;DHT22;14319;49.422;10.934;2023-06-04T03:44:44;11.90;56.30
26707;DHT22;14319;49.422;10.934;2023-06-04T03:46:45;12.00;55.90
26707;DHT22;14319;49.422;10.934;2023-06-04T03:48:47;12.00;56.30
26707;DHT22;14319;49.422;10.934;2023-06-04T03:50:48;12.00;56.30
26707;DHT22;14319;49.422;10.934;2023-06-04T03:52:50;12.10;56.20
26707;DHT22;14319;49.422;10.934;2023-06-04T03:54:54;12.10;56.80
26707;DHT22;14319;49.422;10.934;2023-06-04T03:56:55;12.00;57.50
26707;DHT22;14319;49.422;10.934;2023-06-04T03:58:56;12.00;57.30
26707;DHT22;14319;49.422;10.934;2023-06-04T04:00:57;11.80;57.20
26707;DHT22;14319;49.422;10.934;2023-06-04T04:02:58;11.50;58.50
26707;DHT22;14319;49.422;10.934;2023-06-04T04:05:04;11.40;59.60
26707;DHT22;14319;49.422;10.934;2023-06-04T04:07:05;11.30;60.90
26707;DHT22;14319;49.422;10.934;2023-06-04T04:09:06;11.50;60.50
26707;DHT22;14319;49.422;10.934;2023-06-04T04:11:14;11.50;59.80
26707;DHT22;14319;49.422;10.934;2023-06-04T04:13:15;11.50;60.10
26707;DHT22;14319;49.422;10.934;2023-06-04T04:15:16;11.40;61.40
26707;DHT22;14319;49.422;10.934;2023-06-04T04:17:18;11.10;62.00
26707;DHT22;14319;49.422;10.934;2023-06-04T04:19:19;11.00;62.50
26707;DHT22;14319;49.422;10.934;2023-06-04T04:21:21;10.90;63.20
26707;DHT22;14319;49.422;10.934;2023-06-04T04:23:21;10.90;64.10
26707;DHT22;14319;49.422;10.934;2023-06-04T04:25:23;11.00;63.20
26707;DHT22;14319;49.422;10.934;2023-06-04T04:27:25;11.10;62.50
26707;DHT22;14319;49.422;10.934;2023-06-04T04:29:26;11.10;63.40
26707;DHT22;14319;49.422;10.934;2023-06-04T04:31:29;11.00;64.60
26707;DHT22;14319;49.422;10.934;2023-06-04T04:33:31;10.70;65.50
26707;DHT22;14319;49.422;10.934;2023-06-04T04:35:37;10.80;65.00
26707;DHT22;14319;49.422;10.934;2023-06-04T04:37:39;10.80;60.10
26707;DHT22;14319;49.422;10.934;2023-06-04T04:39:42;10.80;60.50
26707;DHT22;14319;49.422;10.934;2023-06-04T04:41:42;10.80;61.40
26707;DHT22;14319;49.422;10.934;2023-06-04T04:43:43;11.00;60.60
26707;DHT22;14319;49.422;10.934;2023-06-04T04:45:52;11.00;61.00
26707;DHT22;14319;49.422;10.934;2023-06-04T04:47:53;11.10;61.70
26707;DHT22;14319;49.422;10.934;2023-06-04T04:49:54;11.00;63.10
26707;DHT22;14319;49.422;10.934;2023-06-04T04:51:55;11.10;64.10
26707;DHT22;14319;49.422;10.934;2023-06-04T04:53:59;10.90;64.90
26707;DHT22;14319;49.422;10.934;2023-06-04T04:56:07;10.70;63.80
26707;DHT22;14319;49.422;10.934;2023-06-04T04:58:12;10.80;62.40
26707;DHT22;14319;49.422;10.934;2023-06-04T05:00:13;10.70;62.70
26707;DHT22;14319;49.422;10.934;2023-06-04T05:02:17;10.70;62.90
26707;DHT22;14319;49.422;10.934;2023-06-04T05:04:18;10.90;62.80
26707;DHT22;14319;49.422;10.934;2023-06-04T05:06:18;11.00;63.30
26707;DHT22;14319;49.422;10.934;2023-06-04T05:08:20;11.00;62.20
26707;DHT22;14319;49.422;10.934;2023-06-04T05:10:20;11.00;62.60
26707;DHT22;14319;49.422;10.934;2023-06-04T05:12:21;11.10;62.40
26707;DHT22;14319;49.422;10.934;2023-06-04T05:14:22;11.10;61.90
26707;DHT22;14319;49.422;10.934;2023-06-04T05:16:22;11.20;62.90
26707;DHT22;14319;49.422;10.934;2023-06-04T05:18:23;11.20;62.10
26707;DHT22;14319;49.422;10.934;2023-06-04T05:20:29;11.20;60.30
26707;DHT22;14319;49.422;10.934;2023-06-04T05:22:30;11.20;62.60
26707;DHT22;14319;49.422;10.934;2023-06-04T05:24:33;11.20;61.40
26707;DHT22;14319;49.422;10.934;2023-06-04T05:26:36;11.20;62.50
26707;DHT22;14319;49.422;10.934;2023-06-04T05:28:44;11.30;61.40
26707;DHT22;14319;49.422;10.934;2023-06-04T05:30:45;11.40;62.60
26707;DHT22;14319;49.422;10.934;2023-06-04T05:32:49;11.60;60.60
26707;DHT22;14319;49.422;10.934;2023-06-04T05:34:51;11.70;60.50
26707;DHT22;14319;49.422;10.934;2023-06-04T05:36:52;11.70;59.20
26707;DHT22;14319;49.422;10.934;2023-06-04T05:38:53;11.60;59.30
26707;DHT22;14319;49.422;10.934;2023-06-04T05:41:00;11.60;60.00
26707;DHT22;14319;49.422;10.934;2023-06-04T05:43:05;11.60;60.20
26707;DHT22;14319;49.422;10.934;2023-06-04T05:45:08;11.70;60.80
26707;DHT22;14319;49.422;10.934;2023-06-04T05:47:10;11.80;59.20
26707;DHT22;14319;49.422;10.934;2023-06-04T05:49:11;11.80;60.40
26707;DHT22;14319;49.422;10.934;2023-06-04T05:51:13;11.80;59.50
26707;DHT22;14319;49.422;10.934;2023-06-04T05:53:15;11.90;59.30
26707;DHT22;14319;49.422;10.934;2023-06-04T05:55:16;11.90;59.30
26707;DHT22;14319;49.422;10.934;2023-06-04T05:57:17;12.10;59.50
26707;DHT22;14319;49.422;10.934;2023-06-04T05:59:18;12.20;60.90
26707;DHT22;14319;49.422;10.934;2023-06-04T06:01:19;12.30;59.30
26707;DHT22;14319;49.422;10.934;2023-06-04T06:03:20;12.30;60.00
26707;DHT22;14319;49.422;10.934;2023-06-04T06:05:23;12.40;58.70
26707;DHT22;14319;49.422;10.934;2023-06-04T06:07:24;12.60;57.40
26707;DHT22;14319;49.422;10.934;2023-06-04T06:09:24;12.60;58.90
26707;DHT22;14319;49.422;10.934;2023-06-04T06:11:26;12.70;58.20
26707;DHT22;14319;49.422;10.934;2023-06-04T06:13:27;12.80;57.80
26707;DHT22;14319;49.422;10.934;2023-06-04T06:15:28;12.90;56.80
26707;DHT22;14319;49.422;10.934;2023-06-04T06:17:30;13.00;57.10
26707;DHT22;14319;49.422;10.934;2023-06-04T06:19:30;13.10;55.60
26707;DHT22;14319;49.422;10.934;2023-06-04T06:21:31;13.10;55.10
26707;DHT22;14319;49.422;10.934;2023-06-04T06:23:32;13.30;54.60
26707;DHT22;14319;49.422;10.934;2023-06-04T06:25:33;13.40;54.70
26707;DHT22;14319;49.422;10.934;2023-06-04T06:27:39;13.40;54.60
26707;DHT22;14319;49.422;10.934;2023-06-04T06:29:41;13.50;54.30
26707;DHT22;14319;49.422;10.934;2023-06-04T06:31:42;13.50;55.20
26707;DHT22;14319;49.422;10.934;2023-06-04T06:33:42;13.70;52.60
26707;DHT22;14319;49.422;10.934;2023-06-04T06:35:43;13.70;52.70
26707;DHT22;14319;49.422;10.934;2023-06-04T06:37:46;13.80;53.60
26707;DHT22;14319;49.422;10.934;2023-06-04T06:39:47;14.00;52.90
26707;DHT22;14319;49.422;10.934;2023-06-04T06:41:47;14.00;54.70
26707;DHT22;14319;49.422;10.934;2023-06-04T06:43:53;14.00;53.30
26707;DHT22;14319;49.422;10.934;2023-06-04T06:45:54;14.10;52.60
26707;DHT22;14319;49.422;10.934;2023-06-04T06:47:55;14.30;52.10
26707;DHT22;14319;49.422;10.934;2023-06-04T06:49:55;14.30;51.40
26707;DHT22;14319;49.422;10.934;2023-06-04T06:51:56;14.40;50.90
26707;DHT22;14319;49.422;10.934;2023-06-04T06:53:56;14.50;51.10
26707;DHT22;14319;49.422;10.934;2023-06-04T06:55:57;14.60;51.10
26707;DHT22;14319;49.422;10.934;2023-06-04T06:57:58;14.50;51.40
26707;DHT22;14319;49.422;10.934;2023-06-04T06:59:59;14.60;50.80
26707;DHT22;14319;49.422;10.934;2023-06-04T07:01:59;14.70;51.40
26707;DHT22;14319;49.422;10.934;2023-06-04T07:04:00;14.70;52.40
26707;DHT22;14319;49.422;10.934;2023-06-04T07:06:01;14.70;51.10
26707;DHT22;14319;49.422;10.934;2023-06-04T07:08:02;14.80;50.90
26707;DHT22;14319;49.422;10.934;2023-06-04T07:10:03;14.90;50.30
26707;DHT22;14319;49.422;10.934;2023-06-04T07:12:04;15.00;50.60
26707;DHT22;14319;49.422;10.934;2023-06-04T07:14:07;15.00;50.70
26707;DHT22;14319;49.422;10.934;2023-06-04T07:16:08;14.90;51.00
26707;DHT22;14319;49.422;10.934;2023-06-04T07:18:08;14.80;51.80
26707;DHT22;14319;49.422;10.934;2023-06-04T07:20:09;14.90;51.00
26707;DHT22;14319;49.422;10.934;2023-06-04T07:22:10;14.80;51.20
26707;DHT22;14319;49.422;10.934;2023-06-04T07:24:11;14.90;51.20
26707;DHT22;14319;49.422;10.934;2023-06-04T07:26:11;15.00;50.20
26707;DHT22;14319;49.422;10.934;2023-06-04T07:28:12;15.10;51.90
26707;DHT22;14319;49.422;10.934;2023-06-04T07:30:14;15.20;51.20
26707;DHT22;14319;49.422;10.934;2023-06-04T07:32:15;15.30;50.10
26707;DHT22;14319;49.422;10.934;2023-06-04T07:34:16;15.30;51.00
26707;DHT22;14319;49.422;10.934;2023-06-04T07:36:16;15.40;50.80
26707;DHT22;14319;49.422;10.934;2023-06-04T07:38:17;15.50;49.60
26707;DHT22;14319;49.422;10.934;2023-06-04T07:40:18;15.50;50.90
26707;DHT22;14319;49.422;10.934;2023-06-04T07:42:19;15.60;49.30
26707;DHT22;14319;49.422;10.934;2023-06-04T07:44:20;15.60;50.80
26707;DHT22;14319;49.422;10.934;2023-06-04T07:46:20;15.70;50.60
26707;DHT22;14319;49.422;10.934;2023-06-04T07:48:21;15.80;50.10
26707;DHT22;14319;49.422;10.934;2023-06-04T07:50:22;15.70;49.50
26707;DHT22;14319;49.422;10.934;2023-06-04T07:52:22;15.90;49.50
26707;DHT22;14319;49.422;10.934;2023-06-04T07:54:23;15.90;50.00
26707;DHT22;14319;49.422;10.934;2023-06-04T07:56:24;15.90;49.70
26707;DHT22;14319;49.422;10.934;2023-06-04T07:58:26;15.90;49.80
26707;DHT22;14319;49.422;10.934;2023-06-04T08:00:27;16.10;49.10
26707;DHT22;14319;49.422;10.934;2023-06-04T08:02:28;16.30;49.30
26707;DHT22;14319;49.422;10.934;2023-06-04T08:04:28;16.30;48.60
26707;DHT22;14319;49.422;10.934;2023-06-04T08:06:29;16.30;49.00
26707;DHT22;14319;49.422;10.934;2023-06-04T08:08:30;16.40;49.50
26707;DHT22;14319;49.422;10.934;2023-06-04T08:10:31;16.60;47.70
26707;DHT22;14319;49.422;10.934;2023-06-04T08:12:32;16.70;47.30
26707;DHT22;14319;49.422;10.934;2023-06-04T08:14:32;16.60;49.40
26707;DHT22;14319;49.422;10.934;2023-06-04T08:16:39;16.70;47.60
26707;DHT22;14319;49.422;10.934;2023-06-04T08:18:41;16.70;47.50
26707;DHT22;14319;49.422;10.934;2023-06-04T08:20:41;16.70;48.70
26707;DHT22;14319;49.422;10.934;2023-06-04T08:22:42;16.90;49.30
26707;DHT22;14319;49.422;10.934;2023-06-04T08:24:43;16.90;49.00
26707;DHT22;14319;49.422;10.934;2023-06-04T08:26:43;16.90;48.10
26707;DHT22;14319;49.422;10.934;2023-06-04T08:28:48;17.10;47.00
26707;DHT22;14319;49.422;10.934;2023-06-04T08:30:49;17.10;47.60
26707;DHT22;14319;49.422;10.934;2023-06-04T08:32:50;17.20;48.00
26707;DHT22;14319;49.422;10.934;2023-06-04T08:34:50;17.30;47.30
26707;DHT22;14319;49.422;10.934;2023-06-04T08:36:51;17.30;46.90
26707;DHT22;14319;49.422;10.934;2023-06-04T08:38:52;17.30;46.40
26707;DHT22;14319;49.422;10.934;2023-06-04T08:40:57;17.40;46.50
26707;DHT22;14319;49.422;10.934;2023-06-04T08:42:58;17.30;47.30
26707;DHT22;14319;49.422;10.934;2023-06-04T08:45:00;17.40;48.00
26707;DHT22;14319;49.422;10.934;2023-06-04T08:47:05;17.50;46.50
26707;DHT22;14319;49.422;10.934;2023-06-04T08:49:09;17.50;45.60
26707;DHT22;14319;49.422;10.934;2023-06-04T08:51:12;17.40;47.00
26707;DHT22;14319;49.422;10.934;2023-06-04T08:53:15;17.40;46.00
26707;DHT22;14319;49.422;10.934;2023-06-04T08:55:16;17.30;48.30
26707;DHT22;14319;49.422;10.934;2023-06-04T08:57:18;17.30;48.70
26707;DHT22;14319;49.422;10.934;2023-06-04T08:59:19;17.20;47.60
26707;DHT22;14319;49.422;10.934;2023-06-04T09:01:20;17.40;47.60
26707;DHT22;14319;49.422;10.934;2023-06-04T09:03:21;17.60;47.20
26707;DHT22;14319;49.422;10.934;2023-06-04T09:05:22;17.80;47.70
26707;DHT22;14319;49.422;10.934;2023-06-04T09:07:24;17.80;46.60
26707;DHT22;14319;49.422;10.934;2023-06-04T09:09:25;17.90;47.90
26707;DHT22;14319;49.422;10.934;2023-06-04T09:11:53;18.00;46.70
26707;DHT22;14319;49.422;10.934;2023-06-04T09:13:57;18.00;46.30
26707;DHT22;14319;49.422;10.934;2023-06-04T09:16:03;18.00;47.20
26707;DHT22;14319;49.422;10.934;2023-06-04T09:18:04;17.90;45.30
26707;DHT22;14319;49.422;10.934;2023-06-04T09:20:05;17.90;46.80
26707;DHT22;14319;49.422;10.934;2023-06-04T09:22:09;18.10;45.90
26707;DHT22;14319;49.422;10.934;2023-06-04T09:24:10;18.00;45.50
26707;DHT22;14319;49.422;10.934;2023-06-04T09:26:11;18.10;46.30
26707;DHT22;14319;49.422;10.934;2023-06-04T09:28:11;18.20;45.30
26707;DHT22;14319;49.422;10.934;2023-06-04T09:30:12;18.30;45.30
26707;DHT22;14319;49.422;10.934;2023-06-04T09:32:13;18.40;44.90
26707;DHT22;14319;49.422;10.934;2023-06-04T09:34:13;18.40;46.00
26707;DHT22;14319;49.422;10.934;2023-06-04T09:36:15;18.30;46.30
26707;DHT22;14319;49.422;10.934;2023-06-04T09:38:16;18.20;45.20
26707;DHT22;14319;49.422;10.934;2023-06-04T09:40:18;18.10;44.70
26707;DHT22;14319;49.422;10.934;2023-06-04T09:42:18;18.20;43.30
26707;DHT22;14319;49.422;10.934;2023-06-04T09:44:19;18.20;44.50
26707;DHT22;14319;49.422;10.934;2023-06-04T09:46:20;18.30;45.00
26707;DHT22;14319;49.422;10.934;2023-06-04T09:48:21;18.40;45.90
26707;DHT22;14319;49.422;10.934;2023-06-04T09:50:26;18.40;46.20
26707;DHT22;14319;49.422;10.934;2023-06-04T09:52:33;18.40;44.40
26707;DHT22;14319;49.422;10.934;2023-06-04T09:54:38;18.40;44.80
26707;DHT22;14319;49.422;10.934;2023-06-04T09:56:40;18.70;45.40
26707;DHT22;14319;49.422;10.934;2023-06-04T09:58:42;19.00;43.60
26707;DHT22;14319;49.422;10.934;2023-06-04T10:00:45;19.00;43.40
26707;DHT22;14319;49.422;10.934;2023-06-04T10:02:46;19.10;42.90
26707;DHT22;14319;49.422;10.934;2023-06-04T10:04:55;19.30;43.80
26707;DHT22;14319;49.422;10.934;2023-06-04T10:06:59;19.00;41.40
26707;DHT22;14319;49.422;10.934;2023-06-04T10:09:04;19.00;42.70
26707;DHT22;14319;49.422;10.934;2023-06-04T10:11:06;19.00;45.00
26707;DHT22;14319;49.422;10.934;2023-06-04T10:13:17;19.00;43.30
26707;DHT22;14319;49.422;10.934;2023-06-04T10:15:18;19.00;40.80
26707;DHT22;14319;49.422;10.934;2023-06-04T10:17:22;18.90;42.30
26707;DHT22;14319;49.422;10.934;2023-06-04T10:19:23;18.80;42.10
26707;DHT22;14319;49.422;10.934;2023-06-04T10:21:26;18.80;43.70
26707;DHT22;14319;49.422;10.934;2023-06-04T10:23:27;18.90;43.70
26707;DHT22;14319;49.422;10.934;2023-06-04T10:25:29;18.90;42.70
26707;DHT22;14319;49.422;10.934;2023-06-04T10:27:31;18.90;41.40
26707;DHT22;14319;49.422;10.934;2023-06-04T10:29:32;18.90;43.20
26707;DHT22;14319;49.422;10.934;2023-06-04T10:31:33;18.90;42.40
26707;DHT22;14319;49.422;10.934;2023-06-04T10:33:34;18.80;42.40
26707;DHT22;14319;49.422;10.934;2023-06-04T10:35:35;19.00;42.70
26707;DHT22;14319;49.422;10.934;2023-06-04T10:37:36;19.00;41.50
26707;DHT22;14319;49.422;10.934;2023-06-04T10:39:37;18.90;42.00
26707;DHT22;14319;49.422;10.934;2023-06-04T10:41:37;19.00;41.60
26707;DHT22;14319;49.422;10.934;2023-06-04T10:43:38;19.00;42.50
26707;DHT22;14319;49.422;10.934;2023-06-04T10:45:40;18.90;41.30
26707;DHT22;14319;49.422;10.934;2023-06-04T10:47:41;18.90;42.40
26707;DHT22;14319;49.422;10.934;2023-06-04T10:49:41;18.90;41.00
26707;DHT22;14319;49.422;10.934;2023-06-04T10:51:42;19.00;40.80
26707;DHT22;14319;49.422;10.934;2023-06-04T10:53:44;19.20;41.20
26707;DHT22;14319;49.422;10.934;2023-06-04T10:55:46;19.20;41.80
26707;DHT22;14319;49.422;10.934;2023-06-04T10:57:54;19.20;39.10
26707;DHT22;14319;49.422;10.934;2023-06-04T10:59:57;19.20;39.80
26707;DHT22;14319;49.422;10.934;2023-06-04T11:02:06;19.40;39.10
26707;DHT22;14319;49.422;10.934;2023-06-04T11:04:18;19.60;39.60
26707;DHT22;14319;49.422;10.934;2023-06-04T11:06:19;19.80;39.80
26707;DHT22;14319;49.422;10.934;2023-06-04T11:08:29;19.80;38.10
26707;DHT22;14319;49.422;10.934;2023-06-04T11:10:38;19.60;37.60
26707;DHT22;14319;49.422;10.934;2023-06-04T11:12:49;19.60;39.90
26707;DHT22;14319;49.422;10.934;2023-06-04T11:14:54;19.50;39.10
26707;DHT22;14319;49.422;10.934;2023-06-04T11:16:55;19.40;38.80
26707;DHT22;14319;49.422;10.934;2023-06-04T11:18:56;19.40;40.40
26707;DHT22;14319;49.422;10.934;2023-06-04T11:21:00;19.40;39.20
26707;DHT22;14319;49.422;10.934;2023-06-04T11:23:04;19.40;38.80
26707;DHT22;14319;49.422;10.934;2023-06-04T11:25:06;19.40;40.30
26707;DHT22;14319;49.422;10.934;2023-06-04T11:27:07;19.60;38.00
26707;DHT22;14319;49.422;10.934;2023-06-04T11:29:11;20.30;38.60
26707;DHT22;14319;49.422;10.934;2023-06-04T11:31:15;20.20;37.40
26707;DHT22;14319;49.422;10.934;2023-06-04T11:33:15;20.10;37.40
26707;DHT22;14319;49.422;10.934;2023-06-04T11:35:16;20.10;37.90
26707;DHT22;14319;49.422;10.934;2023-06-04T11:37:17;20.10;36.70
26707;DHT22;14319;49.422;10.934;2023-06-04T11:39:18;20.10;37.50
26707;DHT22;14319;49.422;10.934;2023-06-04T11:41:19;20.10;38.30
26707;DHT22;14319;49.422;10.934;2023-06-04T11:43:19;20.00;37.80
26707;DHT22;14319;49.422;10.934;2023-06-04T11:45:21;20.20;39.10
26707;DHT22;14319;49.422;10.934;2023-06-04T11:47:23;20.30;38.60
26707;DHT22;14319;49.422;10.934;2023-06-04T11:49:24;20.30;38.60
26707;DHT22;14319;49.422;10.934;2023-06-04T11:51:26;20.30;39.40
26707;DHT22;14319;49.422;10.934;2023-06-04T11:53:28;20.40;38.10
26707;DHT22;14319;49.422;10.934;2023-06-04T11:55:29;20.50;37.10
26707;DHT22;14319;49.422;10.934;2023-06-04T11:57:31;20.50;37.40
26707;DHT22;14319;49.422;10.934;2023-06-04T11:59:32;20.40;37.30
26707;DHT22;14319;49.422;10.934;2023-06-04T12:01:33;20.40;38.10
26707;DHT22;14319;49.422;10.934;2023-06-04T12:03:38;20.30;36.50
26707;DHT22;14319;49.422;10.934;2023-06-04T12:05:39;20.40;38.80
26707;DHT22;14319;49.422;10.934;2023-06-04T12:07:39;20.90;39.10
26707;DHT22;14319;49.422;10.934;2023-06-04T12:09:40;20.90;37.80
26707;DHT22;14319;49.422;10.934;2023-06-04T12:11:41;21.00;38.20
26707;DHT22;14319;49.422;10.934;2023-06-04T12:13:42;21.00;40.80
26707;DHT22;14319;49.422;10.934;2023-06-04T12:15:50;21.00;38.50
26707;DHT22;14319;49.422;10.934;2023-06-04T12:17:53;21.00;39.50
26707;DHT22;14319;49.422;10.934;2023-06-04T12:19:54;21.10;38.00
26707;DHT22;14319;49.422;10.934;2023-06-04T12:22:04;21.00;38.10
26707;DHT22;14319;49.422;10.934;2023-06-04T12:26:20;20.80;37.30
26707;DHT22;14319;49.422;10.934;2023-06-04T12:28:28;20.80;38.60
26707;DHT22;14319;49.422;10.934;2023-06-04T12:30:41;20.90;38.40
26707;DHT22;14319;49.422;10.934;2023-06-04T12:32:42;20.80;38.90
26707;DHT22;14319;49.422;10.934;2023-06-04T12:34:43;20.80;38.10
26707;DHT22;14319;49.422;10.934;2023-06-04T12:36:43;21.00;36.50
26707;DHT22;14319;49.422;10.934;2023-06-04T12:38:44;21.10;37.30
26707;DHT22;14319;49.422;10.934;2023-06-04T12:40:44;21.10;36.10
26707;DHT22;14319;49.422;10.934;2023-06-04T12:42:45;21.20;36.30
26707;DHT22;14319;49.422;10.934;2023-06-04T12:44:46;21.20;35.40